Time;durP1;ratioP1;P1;durP2;ratioP2;P2;SDS_P1;SDS_P2;PMS_P1;PMS_P2;Temp;Humidity;BMP_temperature;BMP_pressure;BME280_temperature;BME280_humidity;BME280_pressure;Samples;Min_cycle;Max_cycle;Signal;HPM_P1;HPM_P2
2021/07/24 00:02:12;;;;;;;;;;;;;;;21.93;28.71;97877.72;4999389;28;689;-80
2021/07/24 00:04:38;;;;;;;;;;;;;;;22.07;28.80;97871.63;4999175;28;847;-80
2021/07/24 00:07:03;;;;;;;;;;;;;;;21.98;28.77;97869.47;4999575;28;892;-80
2021/07/24 00:09:29;;;;;;;;;;;;;;;22.09;28.45;97874.81;4999092;28;1317;-79
2021/07/24 00:11:55;;;;;;;;;;;;;;;22.03;28.57;97865.28;4999374;28;675;-79
2021/07/24 00:14:20;;;;;;;;;;;;;;;21.93;28.97;97863.56;4999874;28;1965;-80
2021/07/24 00:16:46;;;;;;;;;;;;;;;21.84;28.92;97859.34;4999150;28;715;-79
2021/07/24 00:19:11;;;;;;;;;;;;;;;21.96;29.02;97854.16;4999775;28;961;-80
2021/07/24 00:21:37;;;;;;;;;;;;;;;22.06;28.69;97845.31;5003164;28;901;-79
2021/07/24 00:24:02;;;;;;;;;;;;;;;21.98;28.94;97858.13;5003279;28;994;-79
2021/07/24 00:26:28;;;;;;;;;;;;;;;21.97;28.67;97850.09;5003266;28;678;-80
2021/07/24 00:28:53;;;;;;;;;;;;;;;22.04;28.64;97856.31;5003714;28;702;-79
2021/07/24 00:31:22;;;;;;;;;;;;;;;22.11;28.89;97858.16;5002676;28;627;-79
2021/07/24 00:33:58;;;;;;;;;;;;;;;22.07;28.60;97857.44;5018511;28;1954;-78
2021/07/24 00:36:24;;;;;;;;;;;;;;;22.08;28.74;97859.06;5003006;28;839;-80
2021/07/24 00:38:50;;;;;;;;;;;;;;;21.95;28.78;97858.22;5002989;28;599;-80
2021/07/24 00:41:24;;;;;;;;;;;;;;;21.99;28.87;97858.94;5002958;28;691;-79
2021/07/24 00:43:54;;;;;;;;;;;;;;;22.05;28.96;97857.13;5002144;28;833;-80
2021/07/24 00:46:20;;;;;;;;;;;;;;;22.00;28.83;97854.84;5002472;28;743;-80
2021/07/24 00:48:45;;;;;;;;;;;;;;;22.02;28.68;97855.19;4985760;28;1302;-78
2021/07/24 00:51:21;;;;;;;;;;;;;;;21.95;29.12;97853.34;5018137;28;1458;-80
2021/07/24 00:53:47;;;;;;;;;;;;;;;21.96;28.75;97851.31;5001907;28;1977;-79
2021/07/24 00:56:14;;;;;;;;;;;;;;;22.01;28.58;97839.44;5002702;28;683;-79
2021/07/24 00:58:41;;;;;;;;;;;;;;;21.94;28.82;97851.78;5001885;28;1508;-80
2021/07/24 01:01:07;;;;;;;;;;;;;;;21.99;28.83;97847.59;5002056;28;1354;-79
2021/07/24 01:03:32;;;;;;;;;;;;;;;21.93;28.78;97852.25;5002147;28;979;-80
2021/07/24 01:05:58;;;;;;;;;;;;;;;21.87;29.30;97846.34;5002051;28;918;-79
2021/07/24 01:08:24;;;;;;;;;;;;;;;22.08;29.02;97839.22;5018215;28;1175;-80
2021/07/24 01:10:49;;;;;;;;;;;;;;;21.96;28.75;97842.81;5001831;28;669;-79
2021/07/24 01:13:16;;;;;;;;;;;;;;;21.90;29.08;97841.78;5001664;28;1219;-79
2021/07/24 01:15:46;;;;;;;;;;;;;;;21.91;29.13;97837.72;5001665;28;1910;-79
2021/07/24 01:18:13;;;;;;;;;;;;;;;21.75;29.39;97841.44;5001437;28;1285;-80
2021/07/24 01:20:40;;;;;;;;;;;;;;;21.85;29.22;97837.47;5017825;28;1207;-79
2021/07/24 01:23:06;;;;;;;;;;;;;;;21.90;28.95;97830.47;5018384;28;1495;-80
2021/07/24 01:25:32;;;;;;;;;;;;;;;21.97;28.91;97821.78;5001308;28;1224;-80
2021/07/24 01:27:58;;;;;;;;;;;;;;;21.90;28.89;97827.63;5017799;28;1177;-79
2021/07/24 01:30:24;;;;;;;;;;;;;;;21.88;29.27;97824.47;5001079;28;1135;-79
2021/07/24 01:32:49;;;;;;;;;;;;;;;21.85;28.98;97817.66;5017668;28;1290;-80
2021/07/24 01:35:15;;;;;;;;;;;;;;;21.90;28.96;97821.97;5017467;28;1903;-79
2021/07/24 01:37:41;;;;;;;;;;;;;;;21.96;29.07;97820.16;5001980;28;845;-80
2021/07/24 01:40:07;;;;;;;;;;;;;;;21.85;29.21;97820.50;5017715;28;1238;-80
2021/07/24 01:42:32;;;;;;;;;;;;;;;21.85;28.98;97826.16;5002224;28;810;-79
2021/07/24 01:44:59;;;;;;;;;;;;;;;21.88;28.97;97822.44;5001659;28;669;-79
2021/07/24 01:47:26;;;;;;;;;;;;;;;21.81;29.17;97822.63;5001281;28;939;-79
2021/07/24 01:52:48;;;;;;;;;;;;;;;21.79;28.94;97810.97;5001622;28;717;-79
2021/07/24 01:55:32;;;;;;;;;;;;;;;21.77;29.26;97822.75;5001433;28;1978;-79
2021/07/24 01:58:08;;;;;;;;;;;;;;;21.81;29.33;97823.44;5000968;28;642;-79
2021/07/24 02:00:43;;;;;;;;;;;;;;;22.02;28.68;97818.34;5002138;28;1273;-79
2021/07/24 02:03:24;;;;;;;;;;;;;;;21.82;28.82;97825.03;4986554;28;1171;-78
2021/07/24 02:06:11;;;;;;;;;;;;;;;21.80;29.23;97824.66;5017361;28;1349;-79
2021/07/24 02:08:46;;;;;;;;;;;;;;;21.82;29.25;97819.38;4985241;28;1515;-79
2021/07/24 02:11:12;;;;;;;;;;;;;;;21.88;28.87;97825.25;4984817;28;1207;-79
2021/07/24 02:13:38;;;;;;;;;;;;;;;21.90;28.90;97821.97;5001073;28;1902;-79
2021/07/24 02:16:06;;;;;;;;;;;;;;;21.75;29.09;97821.59;5000792;28;1117;-79
2021/07/24 02:18:31;;;;;;;;;;;;;;;21.84;29.11;97818.91;5000996;28;879;-79
2021/07/24 02:21:13;;;;;;;;;;;;;;;21.88;28.85;97824.47;5002339;28;1473;-79
2021/07/24 02:23:42;;;;;;;;;;;;;;;21.82;29.07;97824.25;5001159;28;1114;-79
2021/07/24 02:26:11;;;;;;;;;;;;;;;21.77;29.26;97816.31;5016760;28;1270;-78
2021/07/24 02:28:38;;;;;;;;;;;;;;;21.75;29.09;97822.41;5000925;28;681;-79
2021/07/24 02:31:05;;;;;;;;;;;;;;;21.87;29.03;97822.88;5016795;28;1151;-80
2021/07/24 02:33:30;;;;;;;;;;;;;;;21.88;29.00;97815.97;5016392;28;1305;-79
2021/07/24 02:35:58;;;;;;;;;;;;;;;21.68;29.11;97822.63;5016140;28;1316;-79
2021/07/24 02:38:28;;;;;;;;;;;;;;;21.75;29.15;97825.22;5016737;28;1294;-80
2021/07/24 02:40:53;;;;;;;;;;;;;;;21.77;29.12;97819.91;5000748;28;670;-79
2021/07/24 02:43:19;;;;;;;;;;;;;;;21.95;28.87;97824.25;5000113;28;642;-80
2021/07/24 02:45:45;;;;;;;;;;;;;;;21.91;28.97;97823.56;5000340;28;1171;-79
2021/07/24 02:48:11;;;;;;;;;;;;;;;21.88;28.76;97827.31;5015631;28;959;-80
2021/07/24 02:50:48;;;;;;;;;;;;;;;21.69;29.15;97824.19;5000424;28;917;-80
2021/07/24 02:53:13;;;;;;;;;;;;;;;21.80;28.77;97832.38;5000554;28;1032;-79
2021/07/24 02:55:39;;;;;;;;;;;;;;;21.79;29.01;97831.59;5000495;28;1971;-80
2021/07/24 02:58:05;;;;;;;;;;;;;;;21.69;29.14;97835.53;4984170;28;1187;-80
2021/07/24 03:00:31;;;;;;;;;;;;;;;21.92;28.88;97836.50;5016569;28;1226;-79
2021/07/24 03:02:57;;;;;;;;;;;;;;;21.82;28.73;97827.88;4999877;28;642;-79
2021/07/24 03:05:22;;;;;;;;;;;;;;;21.87;28.81;97834.22;5000147;28;940;-79
2021/07/24 03:07:47;;;;;;;;;;;;;;;21.91;28.58;97841.34;5000154;28;896;-79
2021/07/24 03:10:13;;;;;;;;;;;;;;;21.88;28.80;97841.47;5000495;28;977;-79
2021/07/24 03:12:38;;;;;;;;;;;;;;;22.00;28.71;97838.63;5000506;28;702;-80
2021/07/24 03:15:04;;;;;;;;;;;;;;;21.94;28.93;97845.31;5000615;28;1903;-80
2021/07/24 03:17:31;;;;;;;;;;;;;;;21.90;28.86;97841.78;5000583;28;646;-79
2021/07/24 03:19:58;;;;;;;;;;;;;;;21.82;28.67;97842.03;5000148;28;847;-79
2021/07/24 03:22:23;;;;;;;;;;;;;;;21.93;28.49;97850.19;5000231;28;905;-80
2021/07/24 03:24:59;;;;;;;;;;;;;;;21.82;29.11;97844.06;5000518;28;850;-79
2021/07/24 03:27:25;;;;;;;;;;;;;;;21.92;28.83;97842.16;5000144;28;655;-79
2021/07/24 03:29:50;;;;;;;;;;;;;;;21.85;28.99;97843.94;5000242;28;610;-80
2021/07/24 03:32:16;;;;;;;;;;;;;;;21.85;28.89;97838.28;4999611;28;663;-80
2021/07/24 03:34:41;;;;;;;;;;;;;;;21.73;29.00;97841.09;4999768;28;1890;-79
2021/07/24 03:37:07;;;;;;;;;;;;;;;21.85;29.06;97843.94;4999823;28;876;-79
2021/07/24 03:39:32;;;;;;;;;;;;;;;21.94;29.06;97839.66;5000197;28;1046;-80
2021/07/24 03:41:58;;;;;;;;;;;;;;;21.88;29.00;97841.47;4999600;28;1179;-79
2021/07/24 03:44:23;;;;;;;;;;;;;;;21.97;29.12;97845.22;5000166;28;686;-80
2021/07/24 03:46:48;;;;;;;;;;;;;;;21.94;28.96;97846.13;4999834;28;1035;-79
2021/07/24 03:49:14;;;;;;;;;;;;;;;21.91;29.00;97847.00;4999820;28;1025;-79
2021/07/24 03:51:39;;;;;;;;;;;;;;;21.88;28.83;97841.47;4999746;28;869;-79
2021/07/24 03:54:05;;;;;;;;;;;;;;;21.92;28.85;97845.00;5001638;28;1962;-79
2021/07/24 03:56:30;;;;;;;;;;;;;;;21.96;28.87;97848.50;5003878;28;758;-80
2021/07/24 03:58:56;;;;;;;;;;;;;;;22.04;28.82;97852.69;5003871;28;643;-79
2021/07/24 04:01:24;;;;;;;;;;;;;;;21.88;28.82;97852.78;5003641;28;687;-79
2021/07/24 04:03:52;;;;;;;;;;;;;;;21.72;29.20;97857.28;5003444;28;875;-80
2021/07/24 04:06:24;;;;;;;;;;;;;;;21.93;29.03;97860.75;5003450;28;942;-80
2021/07/24 04:08:49;;;;;;;;;;;;;;;21.91;29.17;97861.16;5003593;28;866;-80
2021/07/24 04:11:15;;;;;;;;;;;;;;;22.03;28.71;97856.78;5003125;28;630;-80
2021/07/24 04:13:40;;;;;;;;;;;;;;;21.99;28.74;97858.94;5002844;28;1911;-80
2021/07/24 04:16:06;;;;;;;;;;;;;;;21.87;29.11;97866.16;5002845;28;726;-80
2021/07/24 04:18:33;;;;;;;;;;;;;;;21.74;29.34;97856.84;5003322;28;866;-80
2021/07/24 04:20:58;;;;;;;;;;;;;;;21.77;29.49;97853.13;5003282;28;922;-79
2021/07/24 04:23:25;;;;;;;;;;;;;;;21.79;29.44;97862.75;5003284;28;950;-79
2021/07/24 04:25:50;;;;;;;;;;;;;;;21.87;29.35;97862.53;5002639;28;594;-79
2021/07/24 04:28:16;;;;;;;;;;;;;;;21.91;29.51;97863.22;5003315;28;686;-80
2021/07/24 04:30:41;;;;;;;;;;;;;;;21.99;29.24;97864.59;5003552;28;646;-79
2021/07/24 04:33:07;;;;;;;;;;;;;;;21.87;29.50;97863.34;5002922;28;890;-80
2021/07/24 04:35:32;;;;;;;;;;;;;;;21.96;29.10;97866.28;5002744;28;1906;-80
2021/07/24 04:37:58;;;;;;;;;;;;;;;21.90;29.50;97865.25;5003093;28;941;-79
2021/07/24 04:40:23;;;;;;;;;;;;;;;21.98;29.57;97869.47;5003043;28;426;-80
2021/07/24 04:42:48;;;;;;;;;;;;;;;21.92;29.26;97871.28;5002986;28;638;-80
2021/07/24 04:45:15;;;;;;;;;;;;;;;21.87;29.37;97873.88;5003069;28;647;-79
2021/07/24 04:47:41;;;;;;;;;;;;;;;21.84;29.81;97870.69;5002607;28;970;-80
2021/07/24 04:50:06;;;;;;;;;;;;;;;21.92;29.62;97876.16;5002514;28;877;-79
2021/07/24 04:52:32;;;;;;;;;;;;;;;21.94;29.36;97879.31;5002605;28;965;-79
2021/07/24 04:54:58;;;;;;;;;;;;;;;21.94;29.55;97879.31;5001892;28;1993;-79
2021/07/24 04:57:24;;;;;;;;;;;;;;;21.83;29.58;97880.44;5002786;28;651;-79
2021/07/24 04:59:49;;;;;;;;;;;;;;;21.82;29.96;97873.19;5002493;28;957;-79
2021/07/24 05:02:15;;;;;;;;;;;;;;;21.88;29.52;97876.25;5002464;28;884;-80
2021/07/24 05:04:41;;;;;;;;;;;;;;;21.88;29.58;97881.13;5001342;28;957;-80
2021/07/24 05:07:07;;;;;;;;;;;;;;;22.08;29.28;97887.41;5001638;28;580;-79
2021/07/24 05:09:32;;;;;;;;;;;;;;;21.95;29.47;97875.22;5002535;28;655;-80
2021/07/24 05:11:58;;;;;;;;;;;;;;;21.92;29.67;97881.81;5002439;28;719;-79
2021/07/24 05:14:23;;;;;;;;;;;;;;;21.78;29.78;97875.31;5002215;28;1926;-79
2021/07/24 05:16:49;;;;;;;;;;;;;;;21.88;29.58;97887.56;5002087;28;886;-80
2021/07/24 05:19:14;;;;;;;;;;;;;;;21.90;29.63;97884.28;5002265;28;872;-79
2021/07/24 05:21:39;;;;;;;;;;;;;;;21.93;29.83;97883.41;5002404;28;738;-80
2021/07/24 05:24:05;;;;;;;;;;;;;;;21.90;29.61;97873.75;5002432;28;722;-80
2021/07/24 05:26:30;;;;;;;;;;;;;;;21.88;29.76;97883.97;5001964;28;888;-79
2021/07/24 05:28:56;;;;;;;;;;;;;;;21.97;29.64;97884.09;5001957;28;885;-80
2021/07/24 05:31:22;;;;;;;;;;;;;;;22.05;29.51;97882.63;5002087;28;915;-80
2021/07/24 05:33:48;;;;;;;;;;;;;;;21.89;29.75;97877.03;5002202;28;1973;-79
2021/07/24 05:36:13;;;;;;;;;;;;;;;21.96;29.73;97888.16;5002080;28;655;-80
2021/07/24 05:38:39;;;;;;;;;;;;;;;22.07;29.44;97891.44;5001960;28;599;-80
2021/07/24 05:41:04;;;;;;;;;;;;;;;21.98;29.81;97883.63;5001234;28;823;-80
2021/07/24 05:43:30;;;;;;;;;;;;;;;21.95;29.69;97878.84;5001574;28;952;-80
2021/07/24 05:45:55;;;;;;;;;;;;;;;21.90;29.82;97887.13;5001812;28;854;-80
2021/07/24 05:48:21;;;;;;;;;;;;;;;21.89;30.21;97889.16;5001012;28;1157;-79
2021/07/24 05:50:46;;;;;;;;;;;;;;;21.88;29.89;97889.63;5001247;28;771;-80
2021/07/24 05:53:12;;;;;;;;;;;;;;;21.91;29.91;97888.69;5001777;28;694;-80
2021/07/24 05:55:38;;;;;;;;;;;;;;;21.91;29.95;97891.53;5001432;28;2014;-80
2021/07/24 05:58:06;;;;;;;;;;;;;;;21.92;30.03;97887.47;5001391;28;864;-80
2021/07/24 06:00:32;;;;;;;;;;;;;;;22.01;29.72;97891.22;5000910;28;1318;-80
2021/07/24 06:02:57;;;;;;;;;;;;;;;21.97;30.00;97889.75;5001623;28;686;-79
2021/07/24 06:05:22;;;;;;;;;;;;;;;22.07;29.69;97891.44;5001606;28;649;-80
2021/07/24 06:07:48;;;;;;;;;;;;;;;22.10;29.80;97887.72;5001250;28;607;-80
2021/07/24 06:10:16;;;;;;;;;;;;;;;21.91;29.78;97892.31;5001509;28;650;-80
2021/07/24 06:12:45;;;;;;;;;;;;;;;21.92;30.07;97891.09;5001374;28;713;-80
2021/07/24 06:15:11;;;;;;;;;;;;;;;22.05;29.62;97891.91;5001050;28;1948;-80
2021/07/24 06:17:36;;;;;;;;;;;;;;;22.02;29.75;97887.16;5000964;28;819;-79
2021/07/24 06:20:02;;;;;;;;;;;;;;;22.10;29.62;97888.53;5001329;28;930;-79
2021/07/24 06:22:27;;;;;;;;;;;;;;;21.97;29.85;97895.44;5000945;28;1201;-80
2021/07/24 06:24:53;;;;;;;;;;;;;;;22.06;29.96;97884.19;5001245;28;702;-80
2021/07/24 06:27:18;;;;;;;;;;;;;;;22.08;29.66;97893.06;5001110;28;646;-80
2021/07/24 06:29:44;;;;;;;;;;;;;;;22.02;29.85;97881.50;5000864;28;940;-80
2021/07/24 06:32:10;;;;;;;;;;;;;;;22.07;30.07;97894.28;5000806;28;833;-80
2021/07/24 06:34:36;;;;;;;;;;;;;;;22.18;29.70;97899.69;5001182;28;1902;-80
2021/07/24 06:37:01;;;;;;;;;;;;;;;22.00;29.80;97891.66;5000620;28;1143;-80
2021/07/24 06:39:27;;;;;;;;;;;;;;;22.04;29.79;97895.19;5001038;28;714;-80
2021/07/24 06:41:52;;;;;;;;;;;;;;;22.12;30.13;97893.75;5000868;28;694;-79
2021/07/24 06:44:18;;;;;;;;;;;;;;;22.05;30.06;97902.44;5000779;28;666;-80
2021/07/24 06:46:47;;;;;;;;;;;;;;;22.01;29.94;97898.91;5000850;28;1023;-80
2021/07/24 06:49:12;;;;;;;;;;;;;;;22.07;30.13;97895.09;5000069;28;924;-79
2021/07/24 06:51:38;;;;;;;;;;;;;;;22.05;30.29;97896.78;5000712;28;850;-79
2021/07/24 06:54:03;;;;;;;;;;;;;;;21.95;30.15;97897.91;4999808;28;1991;-79
2021/07/24 06:56:29;;;;;;;;;;;;;;;22.04;29.82;97900.88;5000812;28;694;-80
2021/07/24 06:58:54;;;;;;;;;;;;;;;22.00;30.15;97894.50;5000262;28;1748;-80
2021/07/24 07:01:20;;;;;;;;;;;;;;;22.07;29.79;97894.28;5000316;28;1021;-80
2021/07/24 07:03:45;;;;;;;;;;;;;;;22.04;29.86;97901.66;5000232;28;1033;-80
2021/07/24 07:06:13;;;;;;;;;;;;;;;22.03;29.86;97904.94;5000505;28;894;-80
2021/07/24 07:08:39;;;;;;;;;;;;;;;22.13;30.06;97908.75;5000672;28;647;-80
2021/07/24 07:11:04;;;;;;;;;;;;;;;22.08;30.22;97895.91;5000972;28;655;-80
2021/07/24 07:13:30;;;;;;;;;;;;;;;22.02;30.07;97904.16;4999869;28;654;-80
2021/07/24 07:15:55;;;;;;;;;;;;;;;22.01;30.03;97910.25;5015861;28;1985;-79
2021/07/24 07:18:21;;;;;;;;;;;;;;;22.12;30.20;97901.47;5000312;28;1088;-80
2021/07/24 07:20:47;;;;;;;;;;;;;;;22.11;30.20;97897.84;5000093;28;862;-80
2021/07/24 07:23:12;;;;;;;;;;;;;;;21.98;30.52;97908.34;4999696;28;948;-80
2021/07/24 07:25:38;;;;;;;;;;;;;;;22.05;29.98;97908.13;5000526;28;615;-79
2021/07/24 07:28:04;;;;;;;;;;;;;;;22.13;30.17;97908.75;4999671;28;929;-80
2021/07/24 07:30:29;;;;;;;;;;;;;;;22.18;29.94;97900.47;5004682;28;623;-79
2021/07/24 07:32:55;;;;;;;;;;;;;;;22.10;30.24;97899.88;5004024;28;918;-80
2021/07/24 07:35:20;;;;;;;;;;;;;;;22.08;29.97;97901.56;5003882;28;1895;-79
2021/07/24 07:37:50;;;;;;;;;;;;;;;22.04;30.00;97906.53;5004153;28;889;-80
2021/07/24 07:40:16;;;;;;;;;;;;;;;22.05;29.97;97908.91;5003584;28;710;-80
2021/07/24 07:42:41;;;;;;;;;;;;;;;22.10;30.04;97904.72;5004204;28;631;-80
2021/07/24 07:45:07;;;;;;;;;;;;;;;22.08;29.97;97912.91;5003781;28;967;-79
2021/07/24 07:47:32;;;;;;;;;;;;;;;22.22;29.86;97917.34;5003643;28;1132;-79
2021/07/24 07:49:58;;;;;;;;;;;;;;;22.13;30.36;97908.75;5003070;28;1394;-79
2021/07/24 07:52:24;;;;;;;;;;;;;;;22.16;30.05;97911.44;5004035;28;680;-79
2021/07/24 07:54:49;;;;;;;;;;;;;;;22.10;30.04;97910.41;5003976;28;1914;-79
2021/07/24 07:57:15;;;;;;;;;;;;;;;22.04;30.15;97912.19;5003878;28;700;-79
2021/07/24 07:59:40;;;;;;;;;;;;;;;22.11;30.20;97906.34;5003574;28;875;-80
2021/07/24 08:02:05;;;;;;;;;;;;;;;22.12;30.16;97913.59;5003607;28;925;-80
2021/07/24 08:04:32;;;;;;;;;;;;;;;22.27;29.87;97920.41;5003810;28;847;-79
2021/07/24 08:06:57;;;;;;;;;;;;;;;22.19;30.25;97919.06;5003702;28;735;-80
2021/07/24 08:09:23;;;;;;;;;;;;;;;22.19;30.16;97909.75;5003663;28;677;-80
2021/07/24 08:11:49;;;;;;;;;;;;;;;22.11;30.13;97909.19;5003682;28;647;-80
2021/07/24 08:14:15;;;;;;;;;;;;;;;22.16;29.99;97914.28;5003353;28;1895;-80
2021/07/24 08:16:42;;;;;;;;;;;;;;;22.21;29.96;97915.75;5002593;28;877;-80
2021/07/24 08:19:08;;;;;;;;;;;;;;;22.20;30.06;97903.63;5002846;28;946;-79
2021/07/24 08:21:33;;;;;;;;;;;;;;;22.12;30.26;97919.25;5003536;28;623;-79
2021/07/24 08:23:58;;;;;;;;;;;;;;;22.12;30.34;97919.25;5018840;28;818;-80
2021/07/24 08:26:24;;;;;;;;;;;;;;;22.19;30.07;97919.06;5003397;28;751;-80
2021/07/24 08:28:49;;;;;;;;;;;;;;;22.18;30.06;97925.97;5003009;28;882;-79
2021/07/24 08:31:15;;;;;;;;;;;;;;;22.21;29.95;97922.22;5003199;28;850;-80
2021/07/24 08:33:41;;;;;;;;;;;;;;;22.28;30.16;97921.25;5002404;28;928;-80
2021/07/24 08:36:06;;;;;;;;;;;;;;;22.22;30.04;97918.13;5002465;28;1902;-80
2021/07/24 08:38:32;;;;;;;;;;;;;;;22.17;30.01;97923.56;5003154;28;698;-80
2021/07/24 08:40:58;;;;;;;;;;;;;;;22.21;29.97;97922.22;5002053;28;670;-80
2021/07/24 08:43:23;;;;;;;;;;;;;;;22.27;30.14;97919.63;5001982;28;946;-80
2021/07/24 08:45:48;;;;;;;;;;;;;;;22.27;29.84;97920.41;5002758;28;814;-80
2021/07/24 08:48:14;;;;;;;;;;;;;;;22.14;30.28;97921.66;5002770;28;1120;-80
2021/07/24 08:50:40;;;;;;;;;;;;;;;22.18;30.18;97922.34;5003140;28;682;-79
2021/07/24 08:53:05;;;;;;;;;;;;;;;22.16;30.31;97914.28;5002818;28;637;-79
2021/07/24 08:55:32;;;;;;;;;;;;;;;22.30;29.86;97913.84;5002758;28;1914;-79
2021/07/24 08:57:58;;;;;;;;;;;;;;;22.32;29.88;97917.03;5002378;28;947;-80
2021/07/24 09:00:26;;;;;;;;;;;;;;;22.22;29.97;97906.81;5001686;28;941;-79
2021/07/24 09:02:52;;;;;;;;;;;;;;;22.27;29.79;97903.41;5018015;28;1206;-78
2021/07/24 09:05:18;;;;;;;;;;;;;;;22.09;30.28;97905.97;5001778;28;607;-79
2021/07/24 09:07:47;;;;;;;;;;;;;;;22.32;29.86;97916.22;5001849;28;825;-79
2021/07/24 09:10:13;;;;;;;;;;;;;;;22.36;29.97;97912.03;5001913;28;985;-80
2021/07/24 09:12:39;;;;;;;;;;;;;;;22.27;29.81;97903.41;5002124;28;829;-79
2021/07/24 09:15:05;;;;;;;;;;;;;;;22.29;30.07;97909.44;5001380;28;1967;-80
2021/07/24 09:17:30;;;;;;;;;;;;;;;22.21;30.26;97910.88;5001924;28;858;-79
2021/07/24 09:19:56;;;;;;;;;;;;;;;22.29;30.13;97898.09;5002490;28;631;-79
2021/07/24 09:22:28;;;;;;;;;;;;;;;22.12;30.21;97896.59;5001623;28;846;-80
2021/07/24 09:25:03;;;;;;;;;;;;;;;22.21;30.30;97891.06;5002216;28;627;-80
2021/07/24 09:27:28;;;;;;;;;;;;;;;22.39;30.17;97892.56;5002000;28;883;-80
2021/07/24 09:29:54;;;;;;;;;;;;;;;22.26;30.22;97890.50;5001956;28;932;-79
2021/07/24 09:32:19;;;;;;;;;;;;;;;22.18;30.14;97900.47;5001726;28;734;-80
2021/07/24 09:34:46;;;;;;;;;;;;;;;22.17;30.21;97901.69;5001445;28;1898;-80
2021/07/24 09:37:27;;;;;;;;;;;;;;;22.26;30.25;97901.81;5002076;28;666;-80
2021/07/24 09:39:53;;;;;;;;;;;;;;;22.25;30.10;97905.13;5002031;28;598;-79
2021/07/24 09:42:20;;;;;;;;;;;;;;;22.21;30.46;97899.56;5016880;28;911;-80
2021/07/24 09:44:45;;;;;;;;;;;;;;;22.25;30.34;97894.56;5001600;28;837;-80
2021/07/24 09:47:11;;;;;;;;;;;;;;;22.24;30.01;97907.16;5001127;28;984;-79
2021/07/24 09:49:41;;;;;;;;;;;;;;;22.31;30.01;97897.63;5001116;28;1250;-79
2021/07/24 09:52:13;;;;;;;;;;;;;;;22.26;30.11;97898.19;5001581;28;654;-80
2021/07/24 09:54:38;;;;;;;;;;;;;;;22.12;30.39;97899.41;5001404;28;1967;-79
2021/07/24 09:57:04;;;;;;;;;;;;;;;22.23;30.41;97897.06;5001178;28;1280;-79
2021/07/24 09:59:30;;;;;;;;;;;;;;;22.29;30.21;97900.94;5001722;28;946;-80
2021/07/24 10:01:55;;;;;;;;;;;;;;;22.23;30.16;97914.09;5000874;28;938;-80
2021/07/24 10:04:37;;;;;;;;;;;;;;;22.34;29.90;97902.41;5001551;28;710;-79
2021/07/24 10:07:06;;;;;;;;;;;;;;;22.29;30.00;97903.78;5000790;28;882;-80
2021/07/24 10:09:35;;;;;;;;;;;;;;;22.29;29.99;97900.94;5001137;28;879;-79
2021/07/24 10:12:01;;;;;;;;;;;;;;;22.30;29.87;97891.19;5000386;28;875;-79
2021/07/24 10:14:26;;;;;;;;;;;;;;;22.44;29.81;97894.81;5000523;28;1906;-79
2021/07/24 10:16:52;;;;;;;;;;;;;;;22.38;30.04;97890.94;5001432;28;646;-79
2021/07/24 10:19:18;;;;;;;;;;;;;;;22.26;30.33;97899.00;5000489;28;894;-80
2021/07/24 10:21:44;;;;;;;;;;;;;;;22.26;30.02;97890.50;5000559;28;793;-80
2021/07/24 10:24:10;;;;;;;;;;;;;;;22.30;30.02;97888.34;5000900;28;905;-80
2021/07/24 10:26:35;;;;;;;;;;;;;;;22.34;29.88;97889.03;5001072;28;867;-79
2021/07/24 10:29:05;;;;;;;;;;;;;;;22.30;30.15;97885.50;5001117;28;964;-80
2021/07/24 10:31:51;;;;;;;;;;;;;;;22.40;29.83;97896.97;5000616;28;592;-79
2021/07/24 10:34:19;;;;;;;;;;;;;;;22.34;30.20;97891.88;5000312;28;1903;-80
2021/07/24 10:36:45;;;;;;;;;;;;;;;22.49;29.86;97885.75;5000326;28;646;-79
2021/07/24 10:39:17;;;;;;;;;;;;;;;22.35;29.97;97890.63;4999899;28;947;-80
2021/07/24 10:41:46;;;;;;;;;;;;;;;22.23;30.18;97885.75;5000556;28;892;-80
2021/07/24 10:44:30;;;;;;;;;;;;;;;22.33;30.01;97890.28;5000152;28;968;-79
2021/07/24 10:47:02;;;;;;;;;;;;;;;22.34;30.01;97880.53;5000730;28;1090;-79
2021/07/24 10:49:33;;;;;;;;;;;;;;;22.34;30.13;97896.75;5001006;28;750;-80
2021/07/24 10:52:02;;;;;;;;;;;;;;;22.32;30.02;97888.66;5000767;28;630;-79
2021/07/24 10:54:28;;;;;;;;;;;;;;;22.29;30.13;97886.75;5000458;28;1891;-79
2021/07/24 10:56:53;;;;;;;;;;;;;;;22.47;30.01;97883.34;5000408;28;955;-79
2021/07/24 10:59:19;;;;;;;;;;;;;;;22.44;30.11;97877.81;5000620;28;865;-80
2021/07/24 11:01:45;;;;;;;;;;;;;;;22.31;30.23;97881.41;4999944;28;942;-79
2021/07/24 11:04:29;;;;;;;;;;;;;;;22.25;30.21;97877.56;4999935;28;678;-79
2021/07/24 11:07:14;;;;;;;;;;;;;;;22.35;30.12;97882.09;5000653;28;654;-80
2021/07/24 11:09:42;;;;;;;;;;;;;;;22.38;29.78;97879.59;5000568;28;1029;-79
2021/07/24 11:12:07;;;;;;;;;;;;;;;22.31;29.98;97875.75;4999946;28;623;-80
2021/07/24 11:14:41;;;;;;;;;;;;;;;22.28;30.36;97882.34;5000041;28;1906;-79
2021/07/24 11:17:06;;;;;;;;;;;;;;;22.41;30.08;97878.72;5000141;28;939;-80
2021/07/24 11:19:35;;;;;;;;;;;;;;;22.38;30.13;97879.59;5000525;28;879;-80
2021/07/24 11:22:13;;;;;;;;;;;;;;;22.35;30.03;97884.94;5000518;28;646;-80
2021/07/24 11:24:39;;;;;;;;;;;;;;;22.28;29.93;97888.00;5000451;28;651;-79
2021/07/24 11:27:04;;;;;;;;;;;;;;;22.30;29.99;97885.50;4999768;28;770;-80
2021/07/24 11:29:30;;;;;;;;;;;;;;;22.40;29.90;97889.25;5000095;28;890;-79
2021/07/24 11:31:56;;;;;;;;;;;;;;;22.32;30.20;97877.34;5000049;28;916;-80
2021/07/24 11:34:22;;;;;;;;;;;;;;;22.34;29.88;97883.38;4999549;28;1965;-79
2021/07/24 11:36:50;;;;;;;;;;;;;;;22.42;29.98;97883.13;4999713;28;694;-79
2021/07/24 11:39:16;;;;;;;;;;;;;;;22.41;29.66;97884.38;4999610;28;672;-80
2021/07/24 11:41:42;;;;;;;;;;;;;;;22.37;30.10;97878.81;4999469;28;926;-80
2021/07/24 11:44:07;;;;;;;;;;;;;;;22.33;30.20;97887.44;5000233;28;646;-79
2021/07/24 11:46:33;;;;;;;;;;;;;;;22.35;29.97;97876.44;4999917;28;993;-80
2021/07/24 11:49:04;;;;;;;;;;;;;;;22.32;30.27;97883.00;4999933;28;932;-80
2021/07/24 11:51:29;;;;;;;;;;;;;;;22.29;30.34;97864.09;4999992;28;931;-80
2021/07/24 11:53:55;;;;;;;;;;;;;;;22.40;30.09;97882.81;4999443;28;1910;-80
2021/07/24 11:56:20;;;;;;;;;;;;;;;22.36;30.01;97878.03;4999550;28;965;-80
2021/07/24 11:58:53;;;;;;;;;;;;;;;22.41;30.09;97867.38;4999471;28;711;-79
2021/07/24 12:01:20;;;;;;;;;;;;;;;22.40;30.00;97879.97;4999170;28;1078;-79
2021/07/24 12:03:45;;;;;;;;;;;;;;;22.35;30.26;97887.78;4999025;28;897;-80
2021/07/24 12:06:12;;;;;;;;;;;;;;;22.32;30.32;97888.66;5000022;28;846;-80
2021/07/24 12:08:44;;;;;;;;;;;;;;;22.40;29.97;97894.94;4999456;28;873;-79
2021/07/24 12:11:13;;;;;;;;;;;;;;;22.35;30.44;97896.28;4999395;28;932;-79
2021/07/24 12:13:38;;;;;;;;;;;;;;;22.39;30.39;97892.56;4999372;28;654;-78
2021/07/24 12:16:13;;;;;;;;;;;;;;;22.40;30.05;97894.13;5002766;28;1898;-79
2021/07/24 12:18:44;;;;;;;;;;;;;;;22.47;29.95;97899.56;5002871;28;916;-79
2021/07/24 12:21:16;;;;;;;;;;;;;;;22.40;30.36;97896.97;5003543;28;1090;-80
2021/07/24 12:23:52;;;;;;;;;;;;;;;22.56;29.99;97891.19;5002800;28;678;-79
2021/07/24 12:26:21;;;;;;;;;;;;;;;22.36;30.05;97897.88;5003421;28;678;-80
2021/07/24 12:28:47;;;;;;;;;;;;;;;22.53;30.03;97897.75;4986448;28;789;-79
2021/07/24 12:31:18;;;;;;;;;;;;;;;22.35;30.39;97901.16;5003059;28;914;-79
2021/07/24 12:33:53;;;;;;;;;;;;;;;22.30;30.21;97894.00;5003043;28;843;-80
2021/07/24 12:36:20;;;;;;;;;;;;;;;22.30;30.32;97891.19;5003170;28;1977;-80
2021/07/24 12:38:46;;;;;;;;;;;;;;;22.31;30.06;97884.25;5002446;28;755;-79
2021/07/24 12:41:11;;;;;;;;;;;;;;;22.45;30.09;97896.41;5003227;28;627;-80
2021/07/24 12:43:39;;;;;;;;;;;;;;;22.45;30.10;97890.75;5002696;28;893;-80
2021/07/24 12:46:17;;;;;;;;;;;;;;;22.35;30.31;97899.13;5003248;28;814;-79
2021/07/24 12:48:43;;;;;;;;;;;;;;;22.29;30.23;97895.25;5002797;28;1225;-79
2021/07/24 12:51:10;;;;;;;;;;;;;;;22.38;30.03;97897.41;5002403;28;743;-79
2021/07/24 12:53:35;;;;;;;;;;;;;;;22.44;29.94;97894.81;5002141;28;643;-78
2021/07/24 12:56:01;;;;;;;;;;;;;;;22.40;30.02;97894.13;5002156;28;1969;-79
2021/07/24 12:58:27;;;;;;;;;;;;;;;22.52;29.85;97896.97;5001751;28;1258;-79
2021/07/24 13:00:52;;;;;;;;;;;;;;;22.49;29.95;97902.75;5001810;28;904;-79
2021/07/24 13:03:18;;;;;;;;;;;;;;;22.33;30.21;97898.78;5002462;28;922;-78
2021/07/24 13:05:43;;;;;;;;;;;;;;;22.28;30.28;97899.34;5002497;28;707;-79
2021/07/24 13:08:09;;;;;;;;;;;;;;;22.29;30.20;97902.97;5001927;28;678;-79